Wahneta, Florida
Current Conditions -  °F | °C
As of 6:35 PM on Monday 22 Dec 2014 (Local Time) from KBOW Reporting Station
Scattered Clouds Scattered Clouds  
Wind Chill: 73°   Ceiling: Unl
Heat Index: 73°   Visibility: 10mi
Dew Point: 66°   Wind: 9mph
Humidity: 78%   Direction: 200°SSW
Pressure: 29.95"   Gusts: NA
Location:  27.9768°N, 81.764°W
Report Text: KBOW 222335Z AUTO 20008KT 10SM SCT040 23/19 A2995 RMK AO2
Loading
Personal Weather Stations






























Interactive Weather Map New forecast layout! Learn more

10-Day Weather Forecast

Advertisements
Track Severe Weather on mobile